createdAt,value
2022-07-28T00:01:51.665Z,37.03
2022-07-28T00:04:18.071Z,37.06
2022-07-28T00:06:44.425Z,36.93
2022-07-28T00:09:10.775Z,37.28
2022-07-28T00:11:50.214Z,37.05
2022-07-28T00:14:21.378Z,36.76
2022-07-28T00:16:47.804Z,36.99
2022-07-28T00:19:14.265Z,37.30
2022-07-28T00:21:40.634Z,37.13
2022-07-28T00:24:06.994Z,37.16
2022-07-28T00:26:33.362Z,37.04
2022-07-28T00:28:59.738Z,37.53
2022-07-28T00:31:26.120Z,37.27
2022-07-28T00:33:52.695Z,37.28
2022-07-28T00:36:19.059Z,37.72
2022-07-28T00:38:51.046Z,37.51
2022-07-28T00:41:18.312Z,37.69
2022-07-28T00:43:44.672Z,37.30
2022-07-28T00:46:11.104Z,38.10
2022-07-28T00:48:37.564Z,37.93
2022-07-28T00:51:03.948Z,37.69
2022-07-28T00:53:30.305Z,37.69
2022-07-28T00:56:05.790Z,37.31
2022-07-28T00:58:32.845Z,38.31
2022-07-28T01:00:59.203Z,38.24
2022-07-28T01:03:25.564Z,38.27
2022-07-28T01:05:51.919Z,38.30
2022-07-28T01:08:18.273Z,38.18
2022-07-28T01:10:44.646Z,37.98
2022-07-28T01:13:11.018Z,37.82
2022-07-28T01:15:37.473Z,37.76
2022-07-28T01:18:03.963Z,38.43
2022-07-28T01:20:30.337Z,37.62
2022-07-28T01:22:56.702Z,38.35
2022-07-28T01:25:23.074Z,38.07
2022-07-28T01:27:49.450Z,38.75
2022-07-28T01:30:15.818Z,38.62
2022-07-28T01:32:42.185Z,38.11
2022-07-28T01:35:08.536Z,38.78
2022-07-28T01:37:34.892Z,38.79
2022-07-28T01:40:01.256Z,38.60
2022-07-28T01:42:27.643Z,38.75
2022-07-28T01:44:54.014Z,39.27
2022-07-28T01:47:20.376Z,39.00
2022-07-28T01:49:46.737Z,39.29
2022-07-28T01:52:13.097Z,38.74
2022-07-28T01:54:39.459Z,39.20
2022-07-28T01:57:05.817Z,38.86
2022-07-28T01:59:34.687Z,38.95
2022-07-28T02:02:01.103Z,39.33
2022-07-28T02:04:27.519Z,39.46
2022-07-28T02:06:53.877Z,39.09
2022-07-28T02:09:20.238Z,39.64
2022-07-28T02:11:46.609Z,39.71
2022-07-28T02:14:13.149Z,39.76
2022-07-28T02:16:39.714Z,39.76
2022-07-28T02:19:06.079Z,39.85
2022-07-28T02:21:32.447Z,39.56
2022-07-28T02:24:02.695Z,40.36
2022-07-28T02:26:29.057Z,39.69
2022-07-28T02:28:55.423Z,39.47
2022-07-28T02:31:21.853Z,39.87
2022-07-28T02:33:58.802Z,39.95
2022-07-28T02:36:26.841Z,39.65
2022-07-28T02:38:53.222Z,40.80
2022-07-28T02:41:19.581Z,40.53
2022-07-28T02:43:49.729Z,40.57
2022-07-28T02:46:16.946Z,40.41
2022-07-28T02:48:43.392Z,40.29
2022-07-28T02:51:09.761Z,40.74
2022-07-28T02:53:36.132Z,40.30
2022-07-28T02:56:02.480Z,40.25
2022-07-28T02:58:28.844Z,40.31
2022-07-28T03:00:55.215Z,40.57
2022-07-28T03:03:21.605Z,40.60
2022-07-28T03:05:47.974Z,40.89
2022-07-28T03:08:14.325Z,40.24
2022-07-28T03:10:40.694Z,40.40
2022-07-28T03:13:07.064Z,40.27
2022-07-28T03:15:33.432Z,40.97
2022-07-28T03:17:59.785Z,40.47
2022-07-28T03:20:26.149Z,40.43
2022-07-28T03:22:52.520Z,40.63
2022-07-28T03:25:18.888Z,40.51
2022-07-28T03:27:45.247Z,40.38
2022-07-28T03:30:11.596Z,40.57
2022-07-28T03:32:37.975Z,40.61
2022-07-28T03:35:04.361Z,40.47
2022-07-28T03:37:30.732Z,40.73
2022-07-28T03:39:57.095Z,40.28
2022-07-28T03:42:23.452Z,40.29
2022-07-28T03:44:49.818Z,40.30
2022-07-28T03:47:16.203Z,40.63
2022-07-28T03:49:42.585Z,40.52
2022-07-28T03:52:08.954Z,40.58
2022-07-28T03:54:35.321Z,39.98
2022-07-28T03:57:01.680Z,40.25
2022-07-28T03:59:28.041Z,40.43
2022-07-28T04:01:54.401Z,40.26
2022-07-28T04:04:20.760Z,40.25
2022-07-28T04:06:47.115Z,40.45
2022-07-28T04:09:13.468Z,40.51
2022-07-28T04:11:39.855Z,40.09
2022-07-28T04:14:06.825Z,40.39
2022-07-28T04:16:33.272Z,40.18
2022-07-28T04:18:59.665Z,39.91
2022-07-28T04:21:26.034Z,40.80
2022-07-28T04:23:52.405Z,41.31
2022-07-28T04:26:18.769Z,41.68
2022-07-28T04:28:45.144Z,41.52
2022-07-28T04:31:11.584Z,42.57
2022-07-28T04:33:37.998Z,41.49
2022-07-28T04:36:04.361Z,42.46
2022-07-28T04:38:30.743Z,43.07
2022-07-28T04:40:57.106Z,42.23
2022-07-28T04:43:23.475Z,41.95
2022-07-28T04:45:54.108Z,42.14
2022-07-28T04:48:20.859Z,42.58
2022-07-28T04:50:47.232Z,42.12
2022-07-28T04:53:13.606Z,42.19
2022-07-28T04:55:39.985Z,42.12
2022-07-28T04:58:06.348Z,42.02
2022-07-28T05:00:35.662Z,42.36
2022-07-28T05:03:02.040Z,42.12
2022-07-28T05:05:28.423Z,42.11
2022-07-28T05:07:54.796Z,41.91
2022-07-28T05:10:21.162Z,41.89
2022-07-28T05:12:47.523Z,42.25
2022-07-28T05:15:13.901Z,41.87
2022-07-28T05:17:40.283Z,42.14
2022-07-28T05:20:06.642Z,41.95
2022-07-28T05:22:33.000Z,41.73
2022-07-28T05:24:59.374Z,41.83
2022-07-28T05:27:25.733Z,41.67
2022-07-28T05:29:52.085Z,41.91
2022-07-28T05:32:18.520Z,41.39
2022-07-28T05:34:44.947Z,41.55
2022-07-28T05:37:11.338Z,41.54
2022-07-28T05:39:37.716Z,41.45
2022-07-28T05:42:04.092Z,41.49
2022-07-28T05:44:35.793Z,41.31
2022-07-28T05:47:04.140Z,41.30
2022-07-28T05:49:30.497Z,41.07
2022-07-28T05:51:56.866Z,40.88
2022-07-28T05:54:23.225Z,41.42
2022-07-28T05:56:50.432Z,41.30
2022-07-28T05:59:16.868Z,40.98
2022-07-28T06:01:43.393Z,41.19
2022-07-28T06:04:26.566Z,40.81
2022-07-28T06:06:54.532Z,40.75
2022-07-28T06:09:20.922Z,40.91
2022-07-28T06:11:47.299Z,41.06
2022-07-28T06:14:13.895Z,40.66
2022-07-28T06:16:40.490Z,41.03
2022-07-28T06:19:06.889Z,40.84
2022-07-28T06:21:33.244Z,40.60
2022-07-28T06:23:59.647Z,40.33
2022-07-28T06:26:26.018Z,40.39
2022-07-28T06:28:52.385Z,40.54
2022-07-28T06:31:18.855Z,40.11
2022-07-28T06:33:45.266Z,40.41
2022-07-28T06:36:11.660Z,40.32
2022-07-28T06:38:38.022Z,40.17
2022-07-28T06:41:04.400Z,40.32
2022-07-28T06:43:31.033Z,40.19
2022-07-28T06:45:57.433Z,40.54
2022-07-28T06:48:28.774Z,40.42
2022-07-28T06:50:55.707Z,40.32
2022-07-28T06:53:22.086Z,40.55
2022-07-28T06:55:50.053Z,40.48
2022-07-28T06:58:16.530Z,40.30
2022-07-28T07:00:42.930Z,40.25
2022-07-28T07:03:09.973Z,40.30
2022-07-28T07:05:36.408Z,40.27
2022-07-28T07:08:02.775Z,40.62
2022-07-28T07:10:29.135Z,40.51
2022-07-28T07:12:55.497Z,40.61
2022-07-28T07:15:21.869Z,40.27
2022-07-28T07:17:48.256Z,40.75
2022-07-28T07:20:17.118Z,40.48
2022-07-28T07:22:44.699Z,40.58
2022-07-28T07:25:11.054Z,40.51
2022-07-28T07:27:37.454Z,40.45
2022-07-28T07:30:03.825Z,40.93
2022-07-28T07:32:30.188Z,40.55
2022-07-28T07:34:56.545Z,40.44
2022-07-28T07:37:22.897Z,40.79
2022-07-28T07:39:49.248Z,40.72
2022-07-28T07:42:15.603Z,40.88
2022-07-28T07:44:41.969Z,40.68
2022-07-28T07:47:16.439Z,41.01
2022-07-28T07:49:45.942Z,40.90
2022-07-28T07:52:12.710Z,40.52
2022-07-28T07:54:39.089Z,40.65
2022-07-28T07:57:05.445Z,40.68
2022-07-28T07:59:31.818Z,40.91
2022-07-28T08:01:58.271Z,40.65
2022-07-28T08:04:25.268Z,40.66
2022-07-28T08:06:51.884Z,40.63
2022-07-28T08:09:18.249Z,40.70
2022-07-28T08:11:44.614Z,40.54
2022-07-28T08:14:11.184Z,40.85
2022-07-28T08:16:37.919Z,40.78
2022-07-28T08:19:04.325Z,40.67
2022-07-28T08:21:32.461Z,40.90
2022-07-28T08:23:58.830Z,40.55
2022-07-28T08:26:25.207Z,40.70
2022-07-28T08:28:51.569Z,40.68
2022-07-28T08:31:18.012Z,40.94
2022-07-28T08:33:54.043Z,40.72
2022-07-28T08:36:21.229Z,40.70
2022-07-28T08:38:47.648Z,40.73
2022-07-28T08:41:14.012Z,40.82
2022-07-28T08:43:40.368Z,40.80
2022-07-28T08:46:06.784Z,40.76
2022-07-28T08:48:33.392Z,40.78
2022-07-28T08:50:59.857Z,40.64
2022-07-28T08:53:26.230Z,40.87
2022-07-28T08:55:52.611Z,41.09
2022-07-28T08:58:18.981Z,40.89
2022-07-28T09:00:45.362Z,41.27
2022-07-28T09:03:11.755Z,40.77
2022-07-28T09:05:38.139Z,40.97
2022-07-28T09:08:04.507Z,40.85
2022-07-28T09:10:30.871Z,40.84
2022-07-28T09:12:57.229Z,40.73
2022-07-28T09:15:23.587Z,41.08
2022-07-28T09:17:49.948Z,41.02
2022-07-28T09:20:16.316Z,40.89
2022-07-28T09:22:42.679Z,41.04
2022-07-28T09:25:09.045Z,41.08
2022-07-28T09:27:35.421Z,41.54
2022-07-28T09:30:01.795Z,41.15
2022-07-28T09:32:28.161Z,41.20
2022-07-28T09:34:54.506Z,41.17
2022-07-28T09:37:26.408Z,41.00
2022-07-28T09:39:53.659Z,41.20
2022-07-28T09:42:20.024Z,41.32
2022-07-28T09:45:00.202Z,41.32
2022-07-28T09:47:32.655Z,41.22
2022-07-28T09:49:59.256Z,41.18
2022-07-28T09:52:25.666Z,41.03
2022-07-28T09:54:52.021Z,41.22
2022-07-28T09:57:18.380Z,41.54
2022-07-28T09:59:46.126Z,41.57
2022-07-28T10:02:20.176Z,41.33
2022-07-28T10:04:46.583Z,41.47
2022-07-28T10:07:12.944Z,41.53
2022-07-28T10:09:39.309Z,41.40
2022-07-28T10:12:05.674Z,41.42
2022-07-28T10:14:32.395Z,41.80
2022-07-28T10:17:02.839Z,41.19
2022-07-28T10:19:32.072Z,41.63
2022-07-28T10:21:58.429Z,41.33
2022-07-28T10:24:24.794Z,41.51
2022-07-28T10:26:51.149Z,41.71
2022-07-28T10:29:17.506Z,41.42
2022-07-28T10:31:43.888Z,41.47
2022-07-28T10:34:15.821Z,41.77
2022-07-28T10:36:42.672Z,41.45
2022-07-28T10:39:09.029Z,41.77
2022-07-28T10:41:35.393Z,41.78
2022-07-28T10:44:01.773Z,41.54
2022-07-28T10:46:29.203Z,41.47
2022-07-28T10:48:55.698Z,41.62
2022-07-28T10:51:22.425Z,41.76
2022-07-28T10:53:54.819Z,41.61
2022-07-28T10:56:21.428Z,41.59
2022-07-28T10:58:47.800Z,41.84
2022-07-28T11:01:32.489Z,41.65
2022-07-28T11:04:00.677Z,42.07
2022-07-28T11:06:27.121Z,41.77
2022-07-28T11:08:53.473Z,41.79
2022-07-28T11:11:19.843Z,41.86
2022-07-28T11:13:46.253Z,41.80
2022-07-28T11:16:16.905Z,41.59
2022-07-28T11:18:43.417Z,41.60
2022-07-28T11:21:09.792Z,41.88
2022-07-28T11:23:37.201Z,41.71
2022-07-28T11:26:03.559Z,41.87
2022-07-28T11:28:29.923Z,41.94
2022-07-28T11:30:56.354Z,41.99
2022-07-28T11:33:22.770Z,41.86
2022-07-28T11:35:49.120Z,42.08
2022-07-28T11:38:15.481Z,41.93
2022-07-28T11:40:41.895Z,41.70
2022-07-28T11:43:08.282Z,41.49
2022-07-28T11:45:38.733Z,42.11
2022-07-28T11:48:06.301Z,41.88
2022-07-28T11:50:32.659Z,42.01
2022-07-28T11:52:59.023Z,42.15
2022-07-28T11:55:55.145Z,42.00
2022-07-28T11:58:11.718Z,42.15
2022-07-28T12:00:38.093Z,42.32
2022-07-28T12:03:04.471Z,41.92
2022-07-28T12:05:41.812Z,42.15
2022-07-28T12:08:08.477Z,42.19
2022-07-28T12:13:21.202Z,42.06
2022-07-28T12:15:47.576Z,42.12
2022-07-28T12:18:14.421Z,42.36
2022-07-28T12:20:40.860Z,41.83
2022-07-28T12:23:07.230Z,42.43
2022-07-28T12:25:33.599Z,42.08
2022-07-28T12:28:02.185Z,42.00
2022-07-28T12:30:29.824Z,41.92
2022-07-28T12:32:56.212Z,42.18
2022-07-28T12:35:22.559Z,42.46
2022-07-28T12:37:48.934Z,42.32
2022-07-28T12:40:15.309Z,42.51
2022-07-28T12:42:41.677Z,42.45
2022-07-28T12:45:08.050Z,42.85
2022-07-28T12:47:34.404Z,42.35
2022-07-28T12:50:06.470Z,42.49
2022-07-28T12:52:33.332Z,42.38
2022-07-28T12:54:59.697Z,42.25
2022-07-28T12:57:26.064Z,42.45
2022-07-28T12:59:52.425Z,42.54
2022-07-28T13:02:18.834Z,42.44
2022-07-28T13:04:45.279Z,42.44
2022-07-28T13:07:11.642Z,42.27
2022-07-28T13:09:38.003Z,42.22
2022-07-28T13:12:05.425Z,42.62
2022-07-28T13:14:31.789Z,42.38
2022-07-28T13:16:58.195Z,42.48
2022-07-28T13:19:24.585Z,42.48
2022-07-28T13:21:58.065Z,42.83
2022-07-28T13:24:26.260Z,42.26
2022-07-28T13:26:52.632Z,42.25
2022-07-28T13:29:19.000Z,42.58
2022-07-28T13:31:45.434Z,42.86
2022-07-28T13:34:12.103Z,42.62
2022-07-28T13:36:38.758Z,42.32
2022-07-28T13:39:05.129Z,42.87
2022-07-28T13:41:56.197Z,42.49
2022-07-28T13:44:18.139Z,42.90
2022-07-28T13:46:45.484Z,42.76
2022-07-28T13:49:13.871Z,42.77
2022-07-28T13:51:40.311Z,42.68
2022-07-28T13:54:08.168Z,42.62
2022-07-28T13:56:34.529Z,42.76
2022-07-28T13:59:00.896Z,42.76
2022-07-28T14:01:27.923Z,43.00
2022-07-28T14:03:58.105Z,43.23
2022-07-28T14:06:24.715Z,42.87
2022-07-28T14:08:52.700Z,42.90
2022-07-28T14:11:19.256Z,42.96
2022-07-28T14:13:45.699Z,43.10
2022-07-28T14:16:14.768Z,42.84
2022-07-28T14:18:41.219Z,43.01
2022-07-28T14:21:08.442Z,42.78
2022-07-28T14:23:34.801Z,42.90
2022-07-28T14:26:25.280Z,42.97
2022-07-28T14:28:47.509Z,42.86
2022-07-28T14:31:13.930Z,42.67
2022-07-28T14:33:45.573Z,42.82
2022-07-28T14:36:13.842Z,42.72
2022-07-28T14:38:52.931Z,42.78
2022-07-28T14:41:20.480Z,42.62
2022-07-28T14:43:46.837Z,43.10
2022-07-28T14:46:17.932Z,42.84
2022-07-28T14:48:47.985Z,42.88
2022-07-28T14:51:14.428Z,42.75
2022-07-28T14:53:43.324Z,42.58
2022-07-28T14:56:16.493Z,42.89
2022-07-28T14:58:42.873Z,42.90
2022-07-28T15:01:09.244Z,42.50
2022-07-28T15:03:36.575Z,42.98
2022-07-28T15:06:03.112Z,42.78
2022-07-28T15:08:29.687Z,43.07
2022-07-28T15:10:56.099Z,43.38
2022-07-28T15:13:22.475Z,42.85
2022-07-28T15:15:48.904Z,42.84
2022-07-28T15:18:15.302Z,43.00
2022-07-28T15:20:41.852Z,43.01
2022-07-28T15:23:08.221Z,43.09
2022-07-28T15:25:34.569Z,43.00
2022-07-28T15:28:00.925Z,42.74
2022-07-28T15:30:27.288Z,42.60
2022-07-28T15:32:56.826Z,43.31
2022-07-28T15:35:23.744Z,42.77
2022-07-28T15:37:50.110Z,43.04
2022-07-28T15:40:16.469Z,42.76
2022-07-28T15:42:42.834Z,43.09
2022-07-28T15:45:09.203Z,43.21
2022-07-28T15:47:35.582Z,42.71
2022-07-28T15:50:01.941Z,43.05
2022-07-28T15:52:28.310Z,43.31
2022-07-28T15:54:54.713Z,43.21
2022-07-28T15:57:21.064Z,43.27
2022-07-28T15:59:48.849Z,43.81
2022-07-28T16:02:17.452Z,43.45
2022-07-28T16:04:52.208Z,43.71
2022-07-28T16:07:22.382Z,43.15
2022-07-28T16:09:48.909Z,43.13
2022-07-28T16:12:15.278Z,43.68
2022-07-28T16:14:41.925Z,43.47
2022-07-28T16:17:08.511Z,43.54
2022-07-28T16:19:48.341Z,43.64
2022-07-28T16:22:15.192Z,43.93
2022-07-28T16:24:41.561Z,43.79
2022-07-28T16:27:07.917Z,43.90
2022-07-28T16:29:34.285Z,44.06
2022-07-28T16:32:00.658Z,43.92
2022-07-28T16:34:27.027Z,44.00
2022-07-28T16:36:53.404Z,43.93
2022-07-28T16:39:19.773Z,43.86
2022-07-28T16:41:48.189Z,43.90
2022-07-28T16:44:15.070Z,43.72
2022-07-28T16:46:42.031Z,43.97
2022-07-28T16:49:08.464Z,43.79
2022-07-28T16:51:34.856Z,43.71
2022-07-28T16:54:01.223Z,44.11
2022-07-28T16:56:27.588Z,43.88
2022-07-28T16:58:53.984Z,43.74
2022-07-28T17:01:20.368Z,43.95
2022-07-28T17:03:46.769Z,43.93
2022-07-28T17:06:13.157Z,44.01
2022-07-28T17:08:39.520Z,44.17
2022-07-28T17:11:05.888Z,43.63
2022-07-28T17:13:32.261Z,44.13
2022-07-28T17:15:58.681Z,44.08
2022-07-28T17:18:25.081Z,44.01
2022-07-28T17:20:51.434Z,43.96
2022-07-28T17:23:17.811Z,44.11
2022-07-28T17:26:25.422Z,44.00
2022-07-28T17:28:30.530Z,43.90
2022-07-28T17:30:56.960Z,43.91
2022-07-28T17:33:24.536Z,43.68
2022-07-28T17:35:50.893Z,43.90
2022-07-28T17:38:17.249Z,44.22
2022-07-28T17:40:43.600Z,43.88
2022-07-28T17:43:09.978Z,43.97
2022-07-28T17:45:36.348Z,44.35
2022-07-28T17:48:02.717Z,44.26
2022-07-28T17:50:29.069Z,44.25
2022-07-28T17:52:55.437Z,44.17
2022-07-28T17:55:23.506Z,44.10
2022-07-28T17:57:50.565Z,44.18
2022-07-28T18:00:17.251Z,44.25
2022-07-28T18:02:44.708Z,44.18
2022-07-28T18:05:11.339Z,44.24
2022-07-28T18:07:49.104Z,44.07
2022-07-28T18:10:18.411Z,44.49
2022-07-28T18:12:51.251Z,44.07
2022-07-28T18:15:17.619Z,44.23
2022-07-28T18:17:55.178Z,43.91
2022-07-28T18:20:22.231Z,44.27
2022-07-28T18:22:48.602Z,44.22
2022-07-28T18:25:14.969Z,44.29
2022-07-28T18:27:42.428Z,44.28
2022-07-28T18:30:08.795Z,44.13
2022-07-28T18:32:35.165Z,43.74
2022-07-28T18:35:01.532Z,44.25
2022-07-28T18:37:27.885Z,43.75
2022-07-28T18:39:57.408Z,43.80
2022-07-28T18:42:23.775Z,44.06
2022-07-28T18:44:50.138Z,44.38
2022-07-28T18:47:16.499Z,43.12
2022-07-28T18:49:42.940Z,42.91
2022-07-28T18:52:09.383Z,43.99
2022-07-28T18:54:35.762Z,43.49
2022-07-28T18:57:02.163Z,43.53
2022-07-28T18:59:28.525Z,43.01
2022-07-28T19:01:55.008Z,42.85
2022-07-28T19:04:21.446Z,42.78
2022-07-28T19:06:47.828Z,42.87
2022-07-28T19:09:14.212Z,42.89
2022-07-28T19:11:45.527Z,42.81
2022-07-28T19:14:12.541Z,42.95
2022-07-28T19:16:39.056Z,42.59
2022-07-28T19:19:05.420Z,42.83
2022-07-28T19:21:31.775Z,43.25
2022-07-28T19:23:58.141Z,42.65
2022-07-28T19:26:24.522Z,42.85
2022-07-28T19:28:50.880Z,43.07
2022-07-28T19:31:17.339Z,42.34
2022-07-28T19:33:44.217Z,42.49
2022-07-28T19:36:10.704Z,42.83
2022-07-28T19:38:37.056Z,42.54
2022-07-28T19:41:03.417Z,42.48
2022-07-28T19:43:29.785Z,42.90
2022-07-28T19:45:56.240Z,43.08
2022-07-28T19:48:22.624Z,42.86
2022-07-28T19:50:50.962Z,43.03
2022-07-28T19:53:17.689Z,42.90
2022-07-28T19:55:50.592Z,43.16
2022-07-28T19:58:17.768Z,43.23
2022-07-28T20:00:44.143Z,43.02
2022-07-28T20:03:13.589Z,43.31
2022-07-28T20:05:56.846Z,43.02
2022-07-28T20:08:23.210Z,42.98
2022-07-28T20:10:49.575Z,43.40
2022-07-28T20:13:15.939Z,43.22
2022-07-28T20:15:42.301Z,43.21
2022-07-28T20:18:08.650Z,43.40
2022-07-28T20:20:35.015Z,43.39
2022-07-28T20:23:01.391Z,43.05
2022-07-28T20:25:27.766Z,43.46
2022-07-28T20:27:54.129Z,43.52
2022-07-28T20:30:20.478Z,43.32
2022-07-28T20:32:46.895Z,43.45
2022-07-28T20:35:13.265Z,43.29
2022-07-28T20:37:39.653Z,43.22
2022-07-28T20:40:06.042Z,42.97
2022-07-28T20:42:32.443Z,43.05
2022-07-28T20:44:58.835Z,43.13
2022-07-28T20:47:25.208Z,43.06
2022-07-28T20:49:51.567Z,42.97
2022-07-28T20:52:17.930Z,43.34
2022-07-28T20:54:44.282Z,43.44
2022-07-28T20:57:10.650Z,43.06
2022-07-28T20:59:37.021Z,42.60
2022-07-28T21:02:03.494Z,42.21
2022-07-28T21:04:29.948Z,41.83
2022-07-28T21:07:01.711Z,41.92
2022-07-28T21:09:28.738Z,42.04
2022-07-28T21:11:55.385Z,40.79
2022-07-28T21:14:21.773Z,40.74
2022-07-28T21:16:48.167Z,39.92
2022-07-28T21:19:14.576Z,39.69
2022-07-28T21:21:40.949Z,40.16
2022-07-28T21:24:07.326Z,40.09
2022-07-28T21:26:33.696Z,40.35
2022-07-28T21:29:00.074Z,39.00
2022-07-28T21:31:26.436Z,39.25
2022-07-28T21:33:52.788Z,38.45
2022-07-28T21:36:19.154Z,38.69
2022-07-28T21:38:45.530Z,38.37
2022-07-28T21:41:11.913Z,38.09
2022-07-28T21:43:38.277Z,38.57
2022-07-28T21:46:04.667Z,37.99
2022-07-28T21:48:31.125Z,37.64
2022-07-28T21:50:57.492Z,37.68
2022-07-28T21:53:23.858Z,37.26
2022-07-28T21:55:50.218Z,37.14
2022-07-28T21:58:16.572Z,37.79
2022-07-28T22:00:42.975Z,37.57
2022-07-28T22:03:09.478Z,36.80
2022-07-28T22:05:35.859Z,37.10
2022-07-28T22:08:02.222Z,37.27
2022-07-28T22:10:28.586Z,37.65
2022-07-28T22:12:54.940Z,37.31
2022-07-28T22:15:21.305Z,37.56
2022-07-28T22:17:47.671Z,37.21
2022-07-28T22:20:14.036Z,37.38
2022-07-28T22:22:40.389Z,37.35
2022-07-28T22:25:06.761Z,37.12
2022-07-28T22:27:33.127Z,38.00
2022-07-28T22:29:59.506Z,37.86
2022-07-28T22:32:28.792Z,37.56
2022-07-28T22:34:55.728Z,36.97
2022-07-28T22:37:22.094Z,36.49
2022-07-28T22:39:48.451Z,36.55
2022-07-28T22:42:14.820Z,36.59
2022-07-28T22:44:41.192Z,36.68
2022-07-28T22:47:07.558Z,36.54
2022-07-28T22:49:33.920Z,36.19
2022-07-28T22:52:00.281Z,36.08
2022-07-28T22:54:26.803Z,36.48
2022-07-28T22:56:53.224Z,36.65
2022-07-28T22:59:19.653Z,35.94
2022-07-28T23:01:47.870Z,35.85
2022-07-28T23:04:14.812Z,36.41
2022-07-28T23:06:42.157Z,35.73
2022-07-28T23:09:08.590Z,35.91
2022-07-28T23:11:35.029Z,35.33
2022-07-28T23:14:01.481Z,35.29
2022-07-28T23:16:27.937Z,35.33
2022-07-28T23:18:54.370Z,34.61
2022-07-28T23:21:20.803Z,34.49
2022-07-28T23:23:47.227Z,35.39
2022-07-28T23:26:13.656Z,34.86
2022-07-28T23:28:40.069Z,34.50
2022-07-28T23:31:06.534Z,34.40
2022-07-28T23:33:54.317Z,34.88
2022-07-28T23:36:26.402Z,34.82
2022-07-28T23:38:54.085Z,34.92
2022-07-28T23:41:20.645Z,34.57
2022-07-28T23:43:47.064Z,35.12
2022-07-28T23:46:13.519Z,34.85
2022-07-28T23:48:40.040Z,34.66
2022-07-28T23:51:06.512Z,34.68
2022-07-28T23:53:32.935Z,34.82
2022-07-28T23:55:59.374Z,34.52
2022-07-28T23:58:25.811Z,34.60
